Time;durP1;ratioP1;P1;durP2;ratioP2;P2;SDS_P1;SDS_P2;PMS_P1;PMS_P2;Temp;Humidity;BMP_temperature;BMP_pressure;BME280_temperature;BME280_humidity;BME280_pressure;Samples;Min_cycle;Max_cycle;Signal;HPM_P1;HPM_P2
2022/11/28 00:01:46;;;;;;;20.02;17.92;;;9.80;99.90;;;9.90;100.00;100722.06;5098028;28;20049;-65
2022/11/28 00:04:14;;;;;;;18.85;16.95;;;10.00;99.90;;;10.14;100.00;100760.75;5116011;28;20047;-64
2022/11/28 00:06:47;;;;;;;18.45;16.15;;;10.00;99.90;;;10.06;100.00;100730.78;5116168;28;20027;-64
2022/11/28 00:09:17;;;;;;;16.42;14.25;;;10.10;99.90;;;10.21;100.00;100747.50;5116371;28;20040;-64
2022/11/28 00:11:48;;;;;;;16.02;14.38;;;10.10;99.90;;;10.30;100.00;100734.22;5116260;28;20122;-64
2022/11/28 00:14:19;;;;;;;16.25;14.65;;;10.20;99.90;;;10.21;100.00;100704.31;5098039;28;20104;-64
2022/11/28 00:16:47;;;;;;;15.63;14.02;;;10.20;99.90;;;10.41;100.00;100734.16;5116156;28;20094;-65
2022/11/28 00:19:16;;;;;;;16.92;15.10;;;10.30;99.90;;;10.28;100.00;100732.50;5115753;28;20032;-63
2022/11/28 00:21:44;;;;;;;16.27;14.57;;;10.20;99.90;;;10.40;100.00;100729.75;5115658;28;20070;-65
2022/11/28 00:24:13;;;;;;;15.77;14.20;;;10.30;99.90;;;10.42;100.00;100738.56;5115688;28;20060;-64
2022/11/28 00:26:42;;;;;;;16.15;14.32;;;10.30;99.90;;;10.49;100.00;100749.09;5115864;28;20040;-64
2022/11/28 00:29:12;;;;;;;16.88;15.02;;;10.30;99.90;;;10.51;100.00;100741.16;5115879;28;20043;-64
2022/11/28 00:31:42;;;;;;;15.95;14.32;;;10.40;99.90;;;10.60;100.00;100736.69;5115650;28;20127;-64
2022/11/28 00:34:12;;;;;;;;;;;10.40;99.90;;;10.68;100.00;100734.00;5098228;28;20058;-64
2022/11/28 00:36:45;;;;;;;16.45;14.90;;;10.50;99.90;;;10.72;100.00;100733.94;5115855;28;20038;-63
2022/11/28 00:39:15;;;;;;;16.25;14.68;;;10.60;99.90;;;10.57;100.00;100707.59;5115664;28;20063;-64
2022/11/28 00:41:44;;;;;;;16.13;14.63;;;10.50;99.90;;;10.81;100.00;100733.00;5115603;28;20097;-65
2022/11/28 00:44:14;;;;;;;18.08;16.33;;;10.60;99.90;;;10.79;100.00;100724.19;5115244;28;20044;-64
2022/11/28 00:46:43;;;;;;;18.05;16.25;;;10.60;99.90;;;10.86;100.00;100724.13;5115254;28;20134;-64
2022/11/28 00:49:11;;;;;;;18.08;16.38;;;10.70;99.90;;;10.38;100.00;100636.34;5097221;28;20039;-64
2022/11/28 00:51:40;;;;;;;18.45;16.75;;;10.70;99.90;;;10.93;100.00;100722.34;5097112;28;20043;-64
2022/11/28 00:54:08;;;;;;;17.95;16.13;;;10.70;99.90;;;11.02;100.00;100722.25;5115084;28;20040;-64
2022/11/28 00:56:39;;;;;;;17.23;15.48;;;10.80;99.90;;;11.05;100.00;100726.63;5115025;28;20113;-64
2022/11/28 00:59:08;;;;;;;16.00;14.50;;;10.90;99.90;;;10.98;100.00;100703.75;5114971;28;20043;-64
2022/11/28 01:01:40;;;;;;;16.10;14.32;;;10.90;99.90;;;11.13;100.00;100717.72;5115517;28;20046;-64
2022/11/28 01:04:13;;;;;;;15.30;13.90;;;10.90;99.90;;;11.05;100.00;100716.94;5114924;28;20078;-64
2022/11/28 01:06:44;;;;;;;14.93;13.48;;;10.90;99.90;;;11.04;100.00;100706.34;5114818;28;20128;-64
2022/11/28 01:09:16;;;;;;;14.73;13.43;;;10.90;99.90;;;10.86;100.00;100670.34;5115091;28;20126;-64
2022/11/28 01:11:47;;;;;;;14.73;13.20;;;10.90;99.90;;;11.11;100.00;100700.97;5114815;28;20489;-64
2022/11/28 01:14:19;;;;;;;15.68;14.15;;;11.00;99.90;;;11.16;100.00;100706.25;5096416;28;20054;-65
2022/11/28 01:16:49;;;;;;;13.90;12.52;;;11.00;99.90;;;11.23;100.00;100711.44;5114200;28;20040;-64
2022/11/28 01:19:18;;;;;;;14.80;13.40;;;11.00;99.90;;;10.81;100.00;100643.06;5114671;28;20050;-64
2022/11/28 01:21:46;;;;;;;14.90;13.38;;;11.00;99.90;;;11.23;100.00;100732.63;5114479;28;20485;-64
2022/11/28 01:24:15;;;;;;;15.68;13.95;;;11.00;99.90;;;11.22;100.00;100715.00;5114501;28;20118;-64
2022/11/28 01:26:45;;;;;;;14.70;13.30;;;11.00;99.90;;;11.17;100.00;100703.56;5114400;28;20117;-64
2022/11/28 01:29:13;;;;;;;15.02;13.63;;;11.00;99.90;;;11.23;100.00;100706.16;5114403;28;20043;-64
2022/11/28 01:31:42;;;;;;;15.65;14.05;;;11.00;99.90;;;11.25;100.00;100700.84;5114598;28;20402;-66
2022/11/28 01:34:11;;;;;;;15.48;13.98;;;11.00;99.90;;;9.18;100.00;100387.16;5096275;28;20059;-64
2022/11/28 01:36:40;;;;;;;15.57;14.15;;;11.10;99.90;;;11.30;100.00;100702.59;5114560;28;20043;-64
2022/11/28 01:39:11;;;;;;;16.15;14.65;;;11.10;99.90;;;10.45;100.00;100558.75;5114430;28;20046;-64
2022/11/28 01:41:39;;;;;;;15.75;14.18;;;11.10;99.90;;;11.16;100.00;100707.13;5114257;28;20070;-64
2022/11/28 01:44:47;;;;;;;16.75;15.00;;;11.10;99.90;;;11.30;100.00;100717.59;5096158;28;20134;-65
2022/11/28 01:47:21;;;;;;;16.73;15.13;;;11.10;99.90;;;11.27;100.00;100712.28;5095839;28;20044;-64
2022/11/28 01:49:53;;;;;;;18.40;16.50;;;11.10;99.90;;;11.29;100.00;100684.91;5114316;28;20063;-64
2022/11/28 01:52:23;;;;;;;16.02;14.43;;;11.20;99.90;;;11.44;100.00;100690.06;5114120;28;20126;-64
2022/11/28 01:54:58;;;;;;;17.40;15.70;;;11.20;99.90;;;11.45;100.00;100688.28;5114041;28;20156;-64
2022/11/28 01:57:27;;;;;;;15.98;14.52;;;11.30;99.90;;;11.23;100.00;100654.97;5114194;28;20434;-64
2022/11/28 02:00:04;;;;;;;17.27;15.57;;;11.20;99.90;;;10.80;100.00;100593.69;5113653;28;20044;-64
2022/11/28 02:02:43;;;;;;;15.95;14.45;;;11.20;99.90;;;11.34;100.00;100698.97;5113870;28;20121;-64
2022/11/28 02:05:15;;;;;;;16.55;15.05;;;11.20;99.90;;;11.41;100.00;100690.09;5114407;28;20108;-64
2022/11/28 02:07:45;;;;;;;15.70;14.20;;;11.20;99.90;;;11.20;100.00;100658.56;5114093;28;20040;-64
2022/11/28 02:10:19;;;;;;;16.30;14.40;;;11.20;99.90;;;10.77;100.00;100570.78;5114050;28;20447;-64
2022/11/28 02:13:13;;;;;;;14.82;13.48;;;11.30;99.90;;;11.45;100.00;100686.53;5113694;28;20138;-64
2022/11/28 02:15:59;;;;;;;15.60;14.00;;;11.20;99.90;;;11.34;100.00;100691.03;5095712;28;20494;-64
2022/11/28 02:18:44;;;;;;;15.45;14.05;;;11.20;99.90;;;11.41;100.00;100695.41;5095686;28;20147;-64
2022/11/28 02:21:44;;;;;;;14.57;13.15;;;11.20;99.90;;;11.39;100.00;100676.00;5113608;28;20074;-64
2022/11/28 02:25:06;;;;;;;15.40;13.90;;;11.20;99.90;;;11.47;100.00;100682.09;5113593;28;20085;-64
2022/11/28 02:28:16;;;;;;;14.65;13.35;;;11.30;99.90;;;11.46;100.00;100676.78;5095342;28;20393;-64
2022/11/28 02:30:56;;;;;;;14.83;13.33;;;11.30;99.90;;;11.35;100.00;100662.78;5114068;28;20047;-64
2022/11/28 02:33:31;;;;;;;15.00;13.57;;;11.30;99.90;;;11.38;100.00;100668.94;5113761;28;20580;-64
2022/11/28 02:36:09;;;;;;;14.82;13.40;;;11.30;99.90;;;11.45;100.00;100691.81;5113497;28;20043;-64
2022/11/28 02:38:51;;;;;;;15.07;13.68;;;11.30;99.90;;;11.43;100.00;100676.84;5095821;28;20464;-64
2022/11/28 02:41:29;;;;;;;15.38;13.98;;;11.20;99.90;;;11.47;100.00;100684.75;5113495;28;20043;-64
2022/11/28 02:44:09;;;;;;;17.27;15.68;;;11.30;99.90;;;11.31;100.00;100656.66;5113389;28;20069;-64
2022/11/28 02:46:46;;;;;;;16.10;14.65;;;11.30;99.90;;;11.36;100.00;100652.19;5113376;28;20063;-64
2022/11/28 02:49:22;;;;;;;16.65;15.10;;;11.30;99.90;;;11.53;100.00;100687.31;5113319;28;20035;-65
2022/11/28 02:51:57;;;;;;;16.08;14.60;;;11.30;99.90;;;11.52;100.00;100680.25;5113271;28;20035;-64
2022/11/28 02:54:30;;;;;;;15.25;13.85;;;11.30;99.90;;;11.51;100.00;100691.75;5113564;28;20048;-64
2022/11/28 02:56:58;;;;;;;;;;;11.30;99.90;;;11.46;100.00;100682.97;5113974;28;20047;-64
2022/11/28 02:59:46;;;;;;;17.35;15.75;;;11.30;99.90;;;11.45;100.00;100677.69;5113244;28;19935;-64
2022/11/28 03:02:19;;;;;;;16.20;14.70;;;11.30;99.90;;;11.43;100.00;100677.72;5095229;28;20086;-64
2022/11/28 03:05:01;;;;;;;16.15;14.55;;;11.20;99.90;;;11.43;100.00;100682.13;5113530;28;20047;-64
2022/11/28 03:07:50;;;;;;;17.67;15.77;;;11.20;99.90;;;11.41;100.00;100678.63;5113092;28;20044;-64
2022/11/28 03:10:27;;;;;;;18.02;16.33;;;11.20;99.90;;;11.35;100.00;100668.09;5094947;28;20052;-64
2022/11/28 03:13:07;;;;;;;18.45;16.65;;;11.20;99.90;;;11.28;100.00;100651.41;5091643;28;20481;-64
2022/11/28 03:15:44;;;;;;;21.35;18.67;;;11.20;99.90;;;11.35;100.00;100670.75;5092832;28;20486;-64
2022/11/28 03:18:21;;;;;;;19.35;17.45;;;11.20;99.90;;;11.33;100.00;100680.47;5092868;28;20489;-76
2022/11/28 03:20:57;;;;;;;19.08;17.25;;;11.10;99.90;;;11.28;100.00;100685.84;5092836;28;20036;-76
2022/11/28 03:23:34;;;;;;;18.90;17.00;;;11.10;99.90;;;11.31;100.00;100679.59;5092799;28;20040;-76
2022/11/28 03:26:11;;;;;;;19.05;17.10;;;11.10;99.90;;;10.76;100.00;100586.69;5091758;28;20130;-76
2022/11/28 03:28:47;;;;;;;18.38;16.45;;;11.10;99.90;;;11.27;100.00;100689.34;5092762;28;20055;-76
2022/11/28 03:31:20;;;;;;;17.48;15.82;;;11.10;99.90;;;10.51;100.00;100548.13;5092724;28;20048;-76
2022/11/28 03:33:54;;;;;;;18.20;16.27;;;11.10;99.90;;;11.30;100.00;100691.09;5092630;28;20413;-76
2022/11/28 03:36:27;;;;;;;17.80;15.90;;;11.10;99.90;;;11.30;100.00;100680.50;5092709;28;20044;-76
2022/11/28 03:39:03;;;;;;;18.23;16.30;;;11.10;99.90;;;11.16;100.00;100672.72;5091812;28;20055;-76
2022/11/28 03:41:39;;;;;;;18.10;16.30;;;11.10;99.90;;;11.11;100.00;100663.06;5096481;28;20054;-77
2022/11/28 03:44:13;;;;;;;18.17;16.35;;;11.10;99.90;;;11.29;100.00;100686.69;5096565;28;20117;-76
2022/11/28 03:46:47;;;;;;;17.92;15.90;;;11.10;99.90;;;11.24;100.00;100685.88;5096416;28;20449;-76
2022/11/28 03:49:22;;;;;;;16.80;15.05;;;11.00;99.90;;;11.04;100.00;100646.34;5096449;28;20040;-76
2022/11/28 03:51:56;;;;;;;18.02;16.15;;;11.10;99.90;;;11.24;100.00;100678.81;5096366;28;20442;-76
2022/11/28 03:54:30;;;;;;;18.45;16.55;;;11.00;99.90;;;11.20;100.00;100673.56;5097322;28;20123;-76
2022/11/28 03:57:05;;;;;;;18.48;16.48;;;11.10;99.90;;;11.26;100.00;100677.03;5096596;28;20412;-76
2022/11/28 03:59:38;;;;;;;19.13;17.17;;;11.10;99.90;;;11.31;100.00;100682.25;5099315;28;20130;-76
2022/11/28 04:02:20;;;;;;;18.58;16.73;;;11.10;99.90;;;11.22;100.00;100667.34;5097503;28;20517;-75
2022/11/28 04:04:56;;;;;;;19.27;17.27;;;11.10;99.90;;;11.23;100.00;100666.44;5097031;28;20036;-76
2022/11/28 04:07:32;;;;;;;21.17;19.05;;;11.10;99.90;;;11.32;100.00;100690.19;5095308;28;20056;-76
2022/11/28 04:10:08;;;;;;;21.50;19.27;;;11.10;99.90;;;11.36;100.00;100691.91;5094834;28;20477;-76
2022/11/28 04:12:51;;;;;;;21.65;19.35;;;11.10;99.90;;;11.37;100.00;100679.53;5102164;28;20044;-76
2022/11/28 04:15:31;;;;;;;22.33;20.13;;;11.10;99.90;;;11.02;100.00;100632.25;5116140;28;20427;-77
2022/11/28 04:18:08;;;;;;;23.38;20.98;;;11.10;99.90;;;11.33;100.00;100691.94;5098952;28;20485;-76
2022/11/28 04:20:42;;;;;;;23.75;21.25;;;11.10;99.90;;;11.43;100.00;100676.84;5099081;28;20477;-76
2022/11/28 04:23:18;;;;;;;23.95;21.45;;;11.20;99.90;;;11.42;100.00;100683.03;5116159;28;20104;-76
2022/11/28 04:25:52;;;;;;;23.83;21.33;;;11.20;99.90;;;11.30;100.00;100665.50;5115597;28;20055;-76
2022/11/28 04:28:26;;;;;;;23.73;21.17;;;11.20;99.90;;;11.33;100.00;100677.81;5115645;28;20039;-76
2022/11/28 04:31:01;;;;;;;24.92;21.77;;;11.20;99.90;;;11.24;100.00;100647.03;5097743;28;20480;-76
2022/11/28 04:33:33;;;;;;;25.25;22.65;;;11.20;99.90;;;11.03;100.00;100611.97;5116221;28;20078;-75
2022/11/28 04:36:02;;;;;;;24.52;21.90;;;11.30;99.90;;;11.51;100.00;100696.16;5115954;28;20067;-76
2022/11/28 04:38:33;;;;;;;26.85;23.63;;;11.30;99.90;;;11.36;100.00;100683.94;5115756;28;20039;-76
2022/11/28 04:41:09;;;;;;;26.20;23.42;;;11.30;99.90;;;11.51;100.00;100710.31;5115659;28;20089;-76
2022/11/28 04:43:44;;;;;;;27.88;24.73;;;11.30;99.90;;;11.55;100.00;100703.19;5115499;28;20085;-77
2022/11/28 04:46:16;;;;;;;28.52;25.58;;;11.30;99.90;;;11.48;100.00;100704.13;5115627;28;20062;-76
2022/11/28 04:48:45;;;;;;;27.92;24.08;;;11.40;99.90;;;11.54;100.00;100701.41;5115829;28;20031;-76
2022/11/28 04:51:22;;;;;;;26.45;23.52;;;11.40;99.90;;;11.61;100.00;100711.94;5114123;28;20389;-76
2022/11/28 04:54:00;;;;;;;29.48;25.25;;;11.40;99.90;;;11.54;100.00;100699.66;5115314;28;20086;-76
2022/11/28 04:56:37;;;;;;;29.38;23.98;;;11.40;99.90;;;11.54;100.00;100701.41;5115559;28;20104;-76
2022/11/28 04:59:08;;;;;;;26.38;23.05;;;11.40;99.90;;;11.53;100.00;100686.44;5115248;28;20492;-75
2022/11/28 05:01:38;;;;;;;26.88;24.05;;;11.50;99.90;;;11.62;100.00;100697.81;5115208;28;20086;-76
2022/11/28 05:04:07;;;;;;;;;;;11.50;99.90;;;11.64;100.00;100711.91;5115643;28;20040;-75
2022/11/28 05:06:36;;;;;;;28.63;25.40;;;11.50;99.90;;;11.65;100.00;100713.69;5114888;28;19927;-76
2022/11/28 05:09:06;;;;;;;29.65;24.92;;;11.50;99.90;;;11.47;100.00;100690.03;5114850;28;20039;-76
2022/11/28 05:11:35;;;;;;;31.10;25.23;;;11.50;99.90;;;11.68;100.00;100718.97;5115168;28;20459;-76
2022/11/28 05:14:03;;;;;;;28.48;24.25;;;11.40;99.90;;;11.54;100.00;100697.00;5115026;28;20478;-76
2022/11/28 05:16:32;;;;;;;29.15;24.88;;;11.50;99.90;;;11.64;100.00;100709.25;5114923;28;20070;-76
2022/11/28 05:19:00;;;;;;;31.60;26.25;;;11.50;99.90;;;11.44;100.00;100674.16;5096809;28;20044;-76
2022/11/28 05:21:29;;;;;;;28.75;25.35;;;11.50;99.90;;;11.62;100.00;100736.66;5114812;28;20572;-76
2022/11/28 05:23:57;;;;;;;31.77;27.27;;;11.50;99.90;;;11.74;100.00;100723.31;5114745;28;20039;-76
2022/11/28 05:26:30;;;;;;;36.60;27.58;;;11.50;99.90;;;11.38;100.00;100668.94;5114462;28;20039;-76
2022/11/28 05:28:59;;;;;;;32.05;26.42;;;11.50;99.90;;;11.66;100.00;100704.84;5114455;28;20070;-76
2022/11/28 05:31:28;;;;;;;33.55;26.60;;;11.60;99.90;;;11.59;100.00;100697.81;5114698;28;20043;-76
2022/11/28 05:33:57;;;;;;;33.72;27.50;;;11.50;99.90;;;11.53;100.00;100700.56;5114559;28;20516;-76
2022/11/28 05:36:25;;;;;;;33.75;27.95;;;11.50;99.90;;;11.62;100.00;100704.88;5114373;28;20047;-76
2022/11/28 05:38:53;;;;;;;34.10;27.90;;;11.50;99.90;;;11.51;100.00;100688.22;5114255;28;20073;-76
2022/11/28 05:41:24;;;;;;;34.05;27.73;;;11.50;99.90;;;11.69;100.00;100719.84;5114236;28;20045;-76
2022/11/28 05:43:56;;;;;;;37.90;27.40;;;11.50;99.90;;;11.68;100.00;100737.50;5114349;28;20043;-77
2022/11/28 05:46:25;;;;;;;38.83;28.40;;;11.50;99.90;;;11.67;100.00;100737.53;5114227;28;20048;-76
2022/11/28 05:48:54;;;;;;;38.17;28.38;;;11.40;99.90;;;10.95;100.00;100627.94;5114631;28;20035;-76
2022/11/28 05:51:23;;;;;;;34.72;27.38;;;11.40;99.90;;;11.56;100.00;100737.59;5096212;28;20142;-76
2022/11/28 05:53:51;;;;;;;39.95;28.52;;;11.50;99.90;;;11.47;100.00;100735.06;5114081;28;20044;-75
2022/11/28 05:56:22;;;;;;;39.80;28.17;;;11.40;99.90;;;11.46;100.00;100729.75;5114242;28;20040;-76
2022/11/28 05:58:54;;;;;;;36.33;27.15;;;11.40;99.90;;;11.36;100.00;100721.03;5114314;28;20050;-76
2022/11/28 06:01:25;;;;;;;38.67;27.48;;;11.40;99.90;;;11.61;100.00;100758.75;5096044;28;20043;-76
2022/11/28 06:03:59;;;;;;;40.65;28.88;;;11.40;99.90;;;11.63;100.00;100754.31;5113609;28;20523;-77
2022/11/28 06:06:30;;;;;;;38.35;27.73;;;11.40;99.90;;;11.12;100.00;100660.41;5114191;28;20040;-76
2022/11/28 06:09:00;;;;;;;42.65;29.73;;;11.50;99.90;;;11.59;100.00;100728.75;5113787;28;20104;-75
2022/11/28 06:11:31;;;;;;;44.65;30.30;;;11.50;99.90;;;11.71;100.00;100753.34;5113718;28;20118;-76
2022/11/28 06:14:01;;;;;;;44.17;30.65;;;11.50;99.90;;;10.98;100.00;100622.59;5113604;28;20051;-76
2022/11/28 06:16:31;;;;;;;52.97;33.20;;;11.50;99.90;;;11.67;100.00;100756.94;5113715;28;20485;-76
2022/11/28 06:19:02;;;;;;;50.33;32.33;;;11.50;99.90;;;11.65;100.00;100750.78;5113845;28;20435;-76
2022/11/28 06:21:31;;;;;;;51.08;32.67;;;11.50;99.90;;;11.74;100.00;100757.75;5113858;28;20045;-76
2022/11/28 06:24:00;;;;;;;48.70;32.58;;;11.50;99.90;;;11.70;100.00;100759.56;5113648;28;20441;-76
2022/11/28 06:26:29;;;;;;;50.28;32.28;;;11.50;99.90;;;11.61;100.00;100738.41;5113538;28;20039;-75
2022/11/28 06:28:57;;;;;;;56.55;33.50;;;11.50;99.90;;;11.76;100.00;100740.06;5095581;28;20040;-77
2022/11/28 06:31:29;;;;;;;54.97;33.90;;;11.50;99.90;;;11.79;100.00;100748.84;5113426;28;20043;-76
2022/11/28 06:33:58;;;;;;;48.80;33.88;;;11.60;99.90;;;11.81;100.00;100753.28;5114183;28;20131;-76
2022/11/28 06:36:27;;;;;;;51.58;34.10;;;11.60;99.90;;;11.83;100.00;100756.78;5113844;28;20153;-76
2022/11/28 06:38:56;;;;;;;48.20;30.38;;;11.60;99.90;;;11.83;100.00;100760.28;5113471;28;20077;-76
2022/11/28 06:41:24;;;;;;;45.70;32.17;;;11.60;99.90;;;11.79;100.00;100767.41;5095393;28;20047;-76
2022/11/28 06:43:53;;;;;;;44.25;31.38;;;11.60;99.90;;;11.83;100.00;100772.69;5113740;28;20100;-77
2022/11/28 06:46:22;;;;;;;46.58;31.17;;;11.60;99.90;;;11.72;100.00;100752.47;5113345;28;20040;-76
2022/11/28 06:48:53;;;;;;;44.40;30.20;;;11.50;99.90;;;11.70;100.00;100756.91;5095412;28;20052;-77
2022/11/28 06:51:22;;;;;;;44.50;30.50;;;11.50;99.90;;;11.74;100.00;100760.41;5113908;28;20050;-76
2022/11/28 06:53:51;;;;;;;48.20;32.40;;;11.50;99.90;;;11.63;100.00;100760.47;5113275;28;20067;-76
2022/11/28 06:56:20;;;;;;;47.95;31.52;;;11.50;99.90;;;11.50;100.00;100745.59;5095063;28;20047;-77
2022/11/28 06:58:55;;;;;;;53.00;33.47;;;11.40;99.90;;;11.58;100.00;100761.41;5113247;28;20114;-76
2022/11/28 07:01:27;;;;;;;51.72;33.58;;;11.40;99.90;;;9.42;100.00;100421.31;5113567;28;20048;-77
2022/11/28 07:03:57;;;;;;;53.83;32.85;;;11.30;99.90;;;9.02;100.00;100404.84;5113307;28;20036;-76
2022/11/28 07:06:27;;;;;;;54.67;33.72;;;11.30;99.90;;;11.62;100.00;100773.75;5113473;28;20050;-76
2022/11/28 07:08:57;;;;;;;53.97;34.58;;;11.40;99.90;;;11.64;100.00;100767.53;5112949;28;20040;-77
2022/11/28 07:11:28;;;;;;;53.40;32.40;;;11.40;99.90;;;11.42;100.00;100738.66;5113625;28;20048;-76
2022/11/28 07:13:57;;;;;;;;;;;11.40;99.90;;;11.31;100.00;100719.31;5113744;28;20389;-78
2022/11/28 07:16:27;;;;;;;52.03;33.10;;;11.40;99.90;;;11.70;100.00;100782.53;5116932;28;20281;-76
2022/11/28 07:18:59;;;;;;;56.00;34.45;;;11.50;99.90;;;11.72;100.00;100781.63;5116984;28;20062;-76
2022/11/28 07:21:28;;;;;;;55.25;33.75;;;11.50;99.90;;;11.81;100.00;100785.06;5117375;28;20043;-77
2022/11/28 07:23:59;;;;;;;58.83;36.00;;;11.50;99.90;;;11.78;100.00;100783.34;5098902;28;20093;-77
2022/11/28 07:26:27;;;;;;;58.95;35.80;;;11.50;99.90;;;11.81;100.00;100795.69;5117230;28;20048;-77
2022/11/28 07:28:57;;;;;;;65.90;37.47;;;11.60;99.90;;;11.70;100.00;100778.13;5116818;28;20127;-77
2022/11/28 07:31:30;;;;;;;56.17;35.20;;;11.60;99.90;;;11.82;100.00;100793.00;5116636;28;20044;-77
2022/11/28 07:34:03;;;;;;;59.90;35.85;;;11.60;99.90;;;10.38;100.00;100550.00;5116968;28;20051;-77
2022/11/28 07:36:32;;;;;;;67.88;37.13;;;11.70;99.90;;;11.79;100.00;100791.25;5116728;28;20036;-77
2022/11/28 07:39:02;;;;;;;63.95;36.13;;;11.70;99.90;;;11.78;100.00;100780.69;5116652;28;20059;-76
2022/11/28 07:41:31;;;;;;;64.88;37.13;;;11.70;99.90;;;11.76;100.00;100769.22;5116781;28;20456;-74
2022/11/28 07:44:02;;;;;;;66.72;36.28;;;11.70;99.90;;;11.59;100.00;100742.84;5116962;28;20057;-78
2022/11/28 07:46:32;;;;;;;65.18;37.58;;;11.70;99.90;;;11.87;100.00;100832.69;5098541;28;20052;-78
2022/11/28 07:49:03;;;;;;;66.00;37.20;;;11.80;99.90;;;11.92;100.00;100801.72;5116531;28;20473;-78
2022/11/28 07:51:33;;;;;;;62.08;36.35;;;11.80;99.90;;;11.98;100.00;100812.28;5116639;28;20096;-76
2022/11/28 07:54:04;;;;;;;69.55;38.08;;;11.80;99.90;;;11.98;100.00;100809.63;5116455;28;20043;-75
2022/11/28 07:56:36;;;;;;;68.78;39.08;;;11.80;99.90;;;12.02;100.00;100820.16;5116377;28;20134;-79
2022/11/28 07:59:24;;;;;;;68.07;38.50;;;11.80;99.90;;;12.03;100.00;100834.28;5116297;28;20039;-72
2022/11/28 08:01:53;;;;;;;68.03;39.33;;;11.80;99.90;;;11.89;100.00;100796.44;5116475;28;20397;-71
2022/11/28 08:04:26;;;;;;;69.70;39.97;;;11.80;99.90;;;12.02;100.00;100819.28;5116140;28;20039;-72
2022/11/28 08:06:55;;;;;;;69.75;39.92;;;11.80;99.90;;;11.92;100.00;100817.63;5097913;28;20075;-73
2022/11/28 08:09:24;;;;;;;67.57;38.88;;;11.90;99.90;;;11.90;100.00;100784.97;5115825;28;20067;-73
2022/11/28 08:11:52;;;;;;;70.07;38.53;;;11.90;99.90;;;12.08;100.00;100822.75;5116205;28;20048;-73
2022/11/28 08:14:20;;;;;;;67.75;39.47;;;11.90;99.90;;;11.82;100.00;100778.88;5116269;28;20487;-73
2022/11/28 08:16:49;;;;;;;66.18;37.75;;;11.90;99.90;;;12.07;100.00;100820.13;5115929;28;20404;-73
2022/11/28 08:19:17;;;;;;;66.72;37.47;;;11.90;99.90;;;11.96;100.00;100801.69;5116137;28;20031;-73
2022/11/28 08:21:53;;;;;;;66.10;38.13;;;11.90;99.90;;;11.95;100.00;100791.97;5116881;28;20046;-73
2022/11/28 08:24:21;;;;;;;64.15;37.03;;;11.90;99.90;;;12.15;100.00;100820.91;5116534;28;20047;-74
2022/11/28 08:26:50;;;;;;;66.20;37.38;;;12.00;99.90;;;12.20;100.00;100830.56;5116247;28;20400;-73
2022/11/28 08:29:18;;;;;;;61.88;38.03;;;12.00;99.90;;;11.95;100.00;100773.41;5116354;28;20048;-74
2022/11/28 08:31:47;;;;;;;63.80;37.63;;;12.00;99.90;;;12.28;100.00;100833.13;5097868;28;20044;-75
2022/11/28 08:34:15;;;;;;;61.17;36.40;;;12.00;99.90;;;12.01;100.00;100776.00;5115480;28;20039;-78
2022/11/28 08:36:46;;;;;;;61.03;36.72;;;12.10;99.90;;;12.31;100.00;100849.00;5097472;28;20075;-77
2022/11/28 08:39:16;;;;;;;61.25;37.55;;;12.10;99.90;;;12.25;100.00;100815.47;5097405;28;20489;-77
2022/11/28 08:41:53;;;;;;;63.08;36.92;;;12.10;99.90;;;12.27;100.00;100831.38;5115738;28;20039;-74
2022/11/28 08:44:21;;;;;;;57.00;36.13;;;12.10;99.90;;;12.33;100.00;100834.81;5097401;28;20065;-72
2022/11/28 08:46:50;;;;;;;55.47;36.15;;;12.10;99.90;;;12.37;100.00;100828.56;5115635;28;20109;-76
2022/11/28 08:49:18;;;;;;;55.65;35.17;;;12.10;99.90;;;11.63;100.00;100704.84;5115573;28;20074;-73
2022/11/28 08:51:47;;;;;;;52.85;35.15;;;12.10;99.90;;;12.30;100.00;100812.75;5115181;28;20093;-76
2022/11/28 08:54:16;;;;;;;53.45;35.50;;;12.20;99.90;;;11.90;100.00;100738.16;5115256;28;20114;-71
2022/11/28 08:56:47;;;;;;;52.83;33.05;;;12.20;99.90;;;12.44;100.00;100829.38;5115262;28;20089;-73
2022/11/28 08:59:16;;;;;;;53.78;34.33;;;12.20;99.90;;;12.41;100.00;100824.09;5115706;28;20043;-73
2022/11/28 09:01:44;;;;;;;49.90;32.90;;;12.30;99.90;;;12.49;100.00;100831.09;5114991;28;20039;-67
2022/11/28 09:04:13;;;;;;;46.97;32.05;;;12.30;99.90;;;12.52;100.00;100839.00;5115220;28;20052;-69
2022/11/28 09:06:41;;;;;;;44.88;31.48;;;12.40;99.90;;;12.38;100.00;100824.16;5114718;28;20448;-70
2022/11/28 09:09:10;;;;;;;46.17;30.73;;;12.30;99.90;;;12.50;100.00;100834.63;5114626;28;20042;-75
2022/11/28 09:11:40;;;;;;;44.17;29.65;;;12.40;99.90;;;12.63;100.00;100844.16;5114808;28;20035;-71
2022/11/28 09:14:08;;;;;;;40.25;27.67;;;12.40;99.90;;;12.35;100.00;100795.03;5115107;28;20048;-72
2022/11/28 09:16:38;;;;;;;40.80;29.17;;;12.40;99.90;;;12.56;100.00;100838.06;5114655;28;20044;-78
2022/11/28 09:19:08;;;;;;;40.45;28.45;;;12.40;99.90;;;12.62;100.00;100848.59;5115063;28;20047;-75
2022/11/28 09:21:37;;;;;;;43.17;28.45;;;12.40;99.90;;;12.32;100.00;100810.97;5114576;28;20047;-75
2022/11/28 09:24:08;;;;;;;38.33;26.83;;;12.30;99.90;;;12.53;100.00;100848.72;5114599;28;20035;-74
2022/11/28 09:26:36;;;;;;;42.22;28.50;;;12.30;99.90;;;12.47;100.00;100834.63;5114811;28;20143;-71
2022/11/28 09:29:06;;;;;;;43.92;28.65;;;12.30;99.90;;;12.55;100.00;100851.34;5114647;28;20063;-73
2022/11/28 09:31:34;;;;;;;39.67;27.73;;;12.30;99.90;;;12.48;100.00;100839.06;5114735;28;20036;-70
2022/11/28 09:34:03;;;;;;;37.38;27.35;;;12.30;99.90;;;12.57;100.00;100852.22;5114635;28;20035;-70
2022/11/28 09:36:35;;;;;;;40.22;27.48;;;12.30;99.90;;;12.51;100.00;100877.03;5114590;28;20043;-73
2022/11/28 09:39:04;;;;;;;41.70;26.85;;;12.30;99.90;;;12.27;100.00;100820.78;5114356;28;20123;-72
2022/11/28 09:41:44;;;;;;;37.05;26.95;;;12.30;99.90;;;12.56;100.00;100869.03;5096264;28;20413;-72
2022/11/28 09:44:24;;;;;;;37.03;27.40;;;12.30;99.90;;;12.35;100.00;100832.16;5114459;28;20122;-73
2022/11/28 09:46:56;;;;;;;38.65;27.20;;;12.30;99.90;;;12.39;100.00;100833.84;5114277;28;20096;-72
2022/11/28 09:49:36;;;;;;;44.92;28.73;;;12.30;99.90;;;12.27;100.00;100820.78;5114144;28;20515;-73
2022/11/28 09:52:25;;;;;;;41.47;29.33;;;12.30;99.90;;;12.26;100.00;100803.09;5114362;28;20039;-73
2022/11/28 09:55:10;;;;;;;42.28;29.15;;;12.40;99.90;;;12.40;100.00;100828.56;5114117;28;20374;-70
2022/11/28 09:57:41;;;;;;;45.95;29.52;;;12.40;99.90;;;12.37;100.00;100817.97;5114268;28;20455;-74
2022/11/28 10:00:17;;;;;;;47.70;29.50;;;12.40;99.90;;;12.62;100.00;100858.31;5095939;28;20051;-72
2022/11/28 10:03:17;;;;;;;46.10;30.08;;;12.40;99.90;;;12.72;100.00;100870.56;5114261;28;20047;-71
2022/11/28 10:06:01;;;;;;;47.13;31.63;;;12.50;99.90;;;12.70;100.00;100864.41;5114158;28;20034;-72
2022/11/28 10:08:39;;;;;;;44.65;30.60;;;12.40;99.90;;;12.69;100.00;100865.31;5113905;28;20497;-82
2022/11/28 10:11:24;;;;;;;47.67;31.00;;;12.40;99.90;;;12.73;100.00;100855.53;5113750;28;20131;-72
2022/11/28 10:14:04;;;;;;;42.88;30.90;;;12.50;99.90;;;12.51;100.00;100837.25;5113934;28;20412;-72
2022/11/28 10:16:50;;;;;;;49.33;31.80;;;12.50;99.90;;;12.33;100.00;100796.81;5113690;28;20142;-71
2022/11/28 10:19:34;;;;;;;48.60;30.38;;;12.50;99.90;;;12.26;100.00;100779.22;5113759;28;20101;-73